Tiempo atmosférico en la estación meteorológica de La Pinilla, estación de esquí, Segovia (1860 m.)



Fecha
DESCASC
Temp. máxima en grados centígrados (hora)
DESCASC
Temp. mínima en grados centígrados (hora)
DESCASC
Temp. media en grados centígrados
DESCASC
Racha de viento máxima en m/sg (hora)
DESCASC
Velocidad máxima media en intervalos de 10 minutos(hora)
DESCASC
Precipitaciones diarias en mm
DESCASC
Precipitaciones de 00:00 a 06:00 en mm
DESCASC
Precipitaciones de 06:00 a 12:00 en mm
DESCASC
Precipitaciones de 12:00 a 18:00 en mm
DESCASC
Precipitaciones de 18:00 a 24:00 en mm
DESCASC
23-06-2019 23.1 (17:20) 14.7 (06:40) 18.9 20 (13:30) 8.61 (12:30) 0 0 0 0 0
22-06-2019 22.4 (18:30) 7.5 (02:30) 14.9 16.94 (08:30) 11.39 (05:30) 0 0 0 0 0
21-06-2019 16.3 (17:40) 7.7 (07:10) 12 6.94 (15:20) 4.17 (18:30) 0 0 0 0 0
20-06-2019 19.5 (16:20) 8.5 (00:00) 14 11.39 (18:30) 4.72 (15:20) 0 0 0 0 0
19-06-2019 20.3 (16:30) 8.8 (00:00) 14.5 10.56 (00:30) 6.39 (00:30) 0 0 0 0 0
18-06-2019 20.3 (16:30) 11.9 (00:00) 16.1 23.33 (16:00) 8.33 (18:30) 0 0 0 0 0
17-06-2019 22 (18:10) 10.7 (00:00) 16.3 14.17 (16:30) 7.22 (16:30) 0 0 0 0 0
16-06-2019 21.2 (17:30) 8.4 (00:00) 14.8 13.89 (14:20) 9.17 (07:00) 0 0 0 0 0
15-06-2019 16.7 (17:20) 2.6 (00:00) 9.7 10 (00:50) 4.72 (16:10) 0 0 0 0 0
14-06-2019 17.3 (18:20) 7.4 (00:00) 12.3 18.06 (10:50) 9.17 (11:10) 0 0 0 0 0
13-06-2019 18 (19:20) 6.2 (00:00) 12.1 19.72 (13:40) 7.5 (11:10) 0 0 0 0 0
12-06-2019 15.6 (18:20) 1.3 (00:00) 8.5 12.22 (18:30) 5 (19:20) 0 0 0 0 0
11-06-2019 9.8 (00:20) 1.3 (00:00) 5.6 14.17 (17:20) 7.78 (18:40) 2.8 0 2.2 0.6 0
10-06-2019 14.6 (17:50) 4.2 (00:00) 9.4 12.22 (18:00) 5 (16:50) 0 0 0 0 0
09-06-2019 18.1 (16:10) 8.1 (00:00) 13.1 14.72 (00:40) 8.33 (04:50) 0 0 0 0 0
08-06-2019 18.9 (16:40) 2.3 (00:00) 10.6 19.72 (10:20) 12.22 (07:10) 0 0 0 0 0
07-06-2019 11.2 (17:30) -0.4 (00:00) 5.4 24.72 (01:30) 8.61 (01:10) 5.4 5.4 0 0 0
06-06-2019 13.2 (17:10) 1.3 (00:00) 7.2 25.56 (20:50) 11.11 (22:10) 0 0 0 0 0
05-06-2019 9.9 (19:30) 1.1 (00:00) 5.5 15.56 (11:20) 6.11 (11:50) 8.8 2.8 6 0 0
04-06-2019 18.5 (16:30) 9 (00:00) 13.8 16.94 (06:10) 9.44 (09:20) 0 0 0 0 0
03-06-2019 22.8 (17:00) 12.1 (00:00) 17.4 13.89 (14:50) 7.22 (07:30) 0 0 0 0 0
02-06-2019 23.7 (16:10) 14.2 (00:00) 19 21.11 (21:00) 10.56 (04:20) 0.6 0 0 0 0.6
01-06-2019 24.5 (17:00) 13.7 (00:00) 19.1 13.33 (03:20) 10.56 (02:20) 0 0 0 0 0
31-05-2019 23 (17:50) 10.2 (00:00) 16.6 13.06 (00:30) 10.83 (00:10) 0 0 0 0 0
30-05-2019 20.8 (17:40) 7.8 (00:00) 14.3 13.61 (23:59) 10.28 (23:59) 0 0 0 0 0
29-05-2019 14.5 (16:20) 1.2 (00:00) 7.9 13.06 (18:00) 7.22 (18:00) 0 0 0 0 0
28-05-2019 12.6 (15:20) 4 (00:00) 8.3 15.83 (16:40) 9.17 (17:30) 0 0 0 0 0
27-05-2019 15.5 (16:50) 7.8 (00:00) 11.7 14.44 (15:00) 8.06 (19:30) 0 0 0 0 0
26-05-2019 15.4 (18:20) 3.2 (00:00) 9.3 12.78 (16:20) 6.94 (19:50) 0 0 0 0 0

Gráficas

Temp. máximas Temp. mínimas Temp. medias Precipitaciones Rachas de viento máximas Velocidades máximas media en intervalos de 10 minutos

Datos horarios

Fecha y hora oficial Temperatura (ºC) Velocidad del viento (km/h) Dirección del viento Racha (km/h) Dirección de racha Precipitación (mm) Presión (hPa) Tendencia (hPa) Humedad (%)
2019-06-24 23:00:00 11.2 8 Oeste 18 Oeste 0 823.9 1.4 86
2019-06-24 22:00:00 13.3 6 Sudoeste 25 Nordeste 0 823.9 1.4 74
2019-06-24 21:00:00 16.8 9 Nordeste 32 Oeste 0 823.5 1.3 60
2019-06-24 20:00:00 20.1 10 Este 31 Oeste 0 822.5 0.3 41
2019-06-24 19:00:00 18.8 11 Noroeste 38 Sudoeste 0 822.5 0.5 44
2019-06-24 18:00:00 20 9 Noroeste 31 Noroeste 0 822.2 0.1 40
2019-06-24 17:00:00 22.7 11 Noroeste 48 Sudoeste 0 822.2 0.1 33
2019-06-24 16:00:00 20.5 11 Sudoeste 36 Noroeste 0 822 -0.3 37
2019-06-24 15:00:00 20.5 13 Sudeste 33 Noroeste 0 822.1 -0.4 38
2019-06-24 14:00:00 21.2 8 Este 36 Norte 0 822.1 -0.2 40
2019-06-24 13:00:00 19.8 10 Oeste 30 Sudoeste 0 822.3 0.2 37
2019-06-24 12:00:00 17.8 8 Oeste 33 Sudoeste 0 822.5 0.9 40
2019-06-24 11:00:00 17.9 14 Sudoeste 36 Oeste 0 822.3 0.8 40
2019-06-24 10:00:00 18.1 12 Oeste 36 Sur 0 822.1 0.8 38
2019-06-24 09:00:00 18.3 10 Sudoeste 35 Sudoeste 0 821.6 0.2 39
2019-06-24 08:00:00 17 18 Sur 50 Sudeste 0 821.5 0 41
2019-06-24 07:00:00 13.8 37 Sur 54 Sudeste 0 821.3 -0.4 45
2019-06-24 06:00:00 14.9 15 Noroeste 84 Sudeste 0 821.4 -0.6 42
2019-06-24 05:00:00 15.3 22 Sudeste 72 Este 0 821.5 -0.5 44
2019-06-24 04:00:00 15.3 20 Sudoeste 76 Oeste 0 821.7 -0.7 48
2019-06-24 03:00:00 15.7 15 Noroeste 58 Sur 0 822 -0.5 47
2019-06-24 02:00:00 17.1 30 Sur 52 Sur 0 822 -0.5 44
2019-06-24 01:00:00 16.4 3 Sudoeste 15 Sur 0 822.4 0.4 39
2019-06-24 00:00:00 16.6 9 Sudoeste 16 Sudoeste 0 822.5 0.2 39
2019-06-23 23:00:00 16.5 8 Sur 14 Sur 0 822.5 0.4 39
2019-06-23 22:00:00 17.8 7 Este 13 Este 0 822 -0.2 35
2019-06-23 21:00:00 19 3 Norte 14 Este 0 822.3 0.1 32
2019-06-23 20:00:00 20.3 11 Norte 26 Oeste 0 822.1 -0.2 29
2019-06-23 19:00:00 20.9 9 Nordeste 36 Sudeste 0 822.2 -0.1 27
2019-06-23 18:00:00 22.3 13 Norte 51 Oeste 0 822.2 -0.1 25
2019-06-23 17:00:00 22.6 17 Sudoeste 57 Sudeste 0 822.3 -0.3 24
2019-06-23 16:00:00 22.2 10 Noroeste 51 Oeste 0 822.3 -0.4 30
2019-06-23 15:00:00 22.1 17 Sudoeste 58 Oeste 0 822.3 0 32
2019-06-23 14:00:00 21.4 12 Oeste 72 Sudoeste 0 822.6 0.6 34
2019-06-23 13:00:00 20.1 19 Sudoeste 57 Sudoeste 0 822.7 0.7 33
2019-06-23 12:00:00 20.7 14 Sudoeste 48 Sudoeste 0 822.3 0.3 34
2019-06-23 11:00:00 19.3 11 Oeste 30 Sudoeste 0 822 0.4 37
2019-06-23 10:00:00 18.6 9 Norte 19 Norte 0 822 0.7 39
2019-06-23 09:00:00 16.6 7 Norte 35 Sudoeste 0 822 1.1 50
2019-06-23 08:00:00 16 15 Sur 41 Sur 0 821.6 0.8 45
2019-06-23 07:00:00 15.2 19 Sudoeste 44 Sudoeste 0 821.3 0.1 45
2019-06-23 06:00:00 15.5 15 Oeste 51 Sudeste 0 820.9 -0.8 43
2019-06-23 05:00:00 15.3 12 Norte 49 Oeste 0 820.8 -1.5 42
2019-06-23 04:00:00 15.3 14 Este 40 Sudeste 0 821.2 -1.4 38
2019-06-23 03:00:00 16.1 12 Oeste 33 Sudoeste 0 821.7 -0.9 33
2019-06-23 02:00:00 15.9 10 Sudoeste 30 Sur 0 822.3 -0.4 34
2019-06-23 01:00:00 15.3 16 Sur 34 Sudoeste 0 822.6 0.5 36
2019-06-23 00:00:00 16.2 20 Sur 35 Sudoeste 0 822.6 0.5 36
2019-06-22 23:00:00 16.5 19 Sur 42 Sudoeste 0 822.7 0.7 35
2019-06-22 22:00:00 17 19 Sur 40 Sudoeste 0 822.1 0 36
2019-06-22 21:00:00 19.5 10 Sudoeste 45 Oeste 0 822.1 -0.2 30
2019-06-22 20:00:00 20.2 8 Norte 35 Sur 0 822 -0.6 28
2019-06-22 19:00:00 20 6 Sudoeste 26 Noroeste 0 822.1 -0.6 31
2019-06-22 18:00:00 19.8 17 Sudoeste 51 Sudoeste 0 822.3 -0.7 31
2019-06-22 17:00:00 21.1 13 Oeste 38 Sudoeste 0 822.6 -0.6 31
2019-06-22 16:00:00 20 15 Sudoeste 39 Oeste 0 822.7 -0.9 35
2019-06-22 15:00:00 20.7 17 Sudoeste 36 Sudoeste 0 823 -0.7 39
2019-06-22 14:00:00 20 10 Sur 35 Sudoeste 0 823.2 -0.2 43
2019-06-22 13:00:00 18.6 13 Sur 36 Sudoeste 0 823.6 0.3 44
2019-06-22 12:00:00 17.5 18 Sur 36 Sudoeste 0 823.7 0.4 49
2019-06-22 11:00:00 15.6 24 Sur 45 Sur 0 823.4 0.9 58
2019-06-22 10:00:00 13.1 31 Sur 47 Sudeste 0 823.3 0.6 75
2019-06-22 09:00:00 12.5 30 Sur 61 Sudeste 0 823.3 0.8 78
2019-06-22 08:00:00 11.8 40 Sur 52 Sudeste 0 822.5 0.1 79
2019-06-22 07:00:00 10.9 28 Sur 49 Sudeste 0 822.7 -0.4 73
2019-06-22 06:00:00 10.5 39 Sur 50 Sur 0 822.5 -1.1 73
2019-06-22 05:00:00 9.6 37 Sur 47 Sur 0 822.4 -1.6 71
2019-06-22 04:00:00 9.5 4 Sudeste 13 Sudoeste 0 823.1 -1.1 68
2019-06-22 03:00:00 8.4 8 Sur 15 Sudoeste 0 823.6 -0.8 74
2019-06-22 02:00:00 8.1 3 Sudoeste 11 Sur 0 824 -0.4 76
2019-06-22 01:00:00 8.3 11 Sur 15 Este 0 824.2 0.5 76
2019-06-22 00:00:00 7.9 8 Sudeste 17 Este 0 824.4 0.8 79
2019-06-21 23:00:00 8.6 6 Este 12 Este 0 824.4 1.2 80
2019-06-21 22:00:00 10.1 3 Este 17 Norte 0 823.7 1 72
2019-06-21 21:00:00 13.8 14 Norte 22 Norte 0 823.6 0.7 59
2019-06-21 20:00:00 14.1 9 Norte 22 Norte 0 823.2 0.2 57
2019-06-21 19:00:00 15.4 12 Norte 24 Norte 0 822.7 -0.4 58
2019-06-21 18:00:00 14.2 8 Norte 21 Nordeste 0 822.9 -0.2 61
2019-06-21 17:00:00 14 8 Norte 24 Norte 0 823 0 62
2019-06-21 16:00:00 14.3 11 Norte 25 Norte 0 823.1 0.1 62
2019-06-21 15:00:00 12.4 9 Norte 19 Oeste 0 823.1 0.4 72
2019-06-21 14:00:00 11 8 Norte 15 Norte 0 823 0.6 83
2019-06-21 13:00:00 9.3 7 Norte 16 Norte 0 823 0.9 92
2019-06-21 12:00:00 11.7 6 Norte 17 Norte 0 822.7 1 77
2019-06-21 11:00:00 10 6 Norte 14 Norte 0 822.4 1 87
2019-06-21 10:00:00 11.4 9 Norte 17 Nordeste 0 822.1 1.1 82
2019-06-21 09:00:00 12.5 4 Nordeste 12 Norte 0 821.7 0.9 70
2019-06-21 08:00:00 11.7 6 Sudeste 10 Sudeste 0 821.4 0.6 70
2019-06-21 07:00:00 8 4 Sur 9 Sur 0 821 -0.1 77
2019-06-21 06:00:00 9.3 6 Oeste 11 Oeste 0 820.8 -0.5 71
2019-06-21 05:00:00 9 5 Sudoeste 17 Sur 0 820.8 -0.7 76
2019-06-21 04:00:00 8.5 4 Sudeste 9 Noroeste 0 821.1 -0.3 96
2019-06-21 03:00:00 8.9 4 Norte 18 Oeste 0 821.3 0.1 96
2019-06-21 02:00:00 9.7 4 Oeste 13 Noroeste 0 821.5 0.5 83
2019-06-21 01:00:00 9.8 10 Sur 21 Sur 0 821.4 1.1 83
2019-06-21 00:00:00 11.3 11 Sur 27 Sur 0 821.2 1.1 77
2019-06-20 23:00:00 11.1 6 Sur 20 Sur 0 821 1.1 75
2019-06-20 22:00:00 12.9 6 Sudeste 18 Sudeste 0 820.3 0 62
2019-06-20 21:00:00 13.7 3 Nordeste 17 Oeste 0 820.1 0.6 61
2019-06-20 20:00:00 16 8 Noroeste 14 Oeste 0 819.9 -0.3 60
2019-06-20 19:00:00 13.3 8 Sudoeste 41 Oeste 0 820.3 -0.5 73
2019-06-20 18:00:00 16 12 Norte 30 Este 0 819.5 -1.4 51
2019-06-20 17:00:00 16.1 5 Nordeste 24 Norte 0 820.2 -0.9 62
2019-06-20 16:00:00 17 8 Norte 36 Norte 0 820.8 -0.6 57
2019-06-20 15:00:00 17.8 9 Nordeste 18 Nordeste 0 820.9 -0.5 54
2019-06-20 14:00:00 15.4 6 Norte 15 Norte 0 821.1 0 64
2019-06-20 13:00:00 15.1 6 Norte 12 Norte 0 821.4 0 65
2019-06-20 12:00:00 14.1 4 Norte 13 Nordeste 0 821.4 0.1 67
2019-06-20 11:00:00 13 4 Norte 9 Norte 0 821.1 -0.2 70
2019-06-20 10:00:00 11.9 4 Norte 8 Norte 0 821.4 0.2 73
2019-06-20 09:00:00 11.8 4 Norte 8 Norte 0 821.3 0.1 73
2019-06-20 08:00:00 10 3 Sudeste 7 Norte 0 821.3 0 83
2019-06-20 07:00:00 9.3 4 Sudeste 15 Sur 0 821.2 -0.3 84
2019-06-20 06:00:00 9 12 Sur 18 Sur 0 821.2 -0.6 87
2019-06-20 05:00:00 9.1 0 Calma 7 Sudoeste 0 821.3 -0.9 84
2019-06-20 04:00:00 9.6 0 Calma 6 Sudoeste 0 821.5 -0.9 82
2019-06-20 03:00:00 10 3 Sudoeste 10 Oeste 0 821.8 -0.8 81
2019-06-20 02:00:00 10.3 5 Sur 10 Sudoeste 0 822.2 -0.4 80
2019-06-20 01:00:00 10.8 5 Noroeste 9 Noroeste 0 822.4 0 77
2019-06-20 00:00:00 10.9 4 Sur 10 Oeste 0 822.6 0.6 73
2019-06-19 23:00:00 12.1 4 Sudoeste 14 Oeste 0 822.6 0.8 67
2019-06-19 22:00:00 12.9 6 Noroeste 31 Noroeste 0 822.4 0.9 65
2019-06-19 21:00:00 14.7 3 Norte 21 Noroeste 0 822 0.4 57
2019-06-19 20:00:00 15.6 6 Nordeste 19 Nordeste 0 821.8 0.2 51
2019-06-19 19:00:00 17.8 12 Sudoeste 28 Sudoeste 0 821.5 -0.3 52
2019-06-19 18:00:00 16.5 9 Oeste 25 Sudoeste 0 821.6 -0.2 55
2019-06-19 17:00:00 17.4 14 Sur 36 Sur 0 821.6 -0.4 51
2019-06-19 16:00:00 17.1 10 Oeste 34 Oeste 0 821.8 -0.3 53
2019-06-19 15:00:00 17.3 9 Oeste 24 Oeste 0 821.8 0 55
2019-06-19 14:00:00 16.7 9 Oeste 23 Oeste 0 822 0.3 60
2019-06-19 13:00:00 14.5 5 Oeste 17 Norte 0 822.1 0.7 66
2019-06-19 12:00:00 13.5 8 Oeste 22 Oeste 0 821.8 0.6 71
2019-06-19 11:00:00 12.5 7 Oeste 21 Oeste 0 821.7 0.5 72
2019-06-19 10:00:00 12.3 12 Oeste 22 Oeste 0 821.4 0.3 71
2019-06-19 09:00:00 9.9 6 Sudeste 36 Noroeste 0 821.2 0.2 81
2019-06-19 08:00:00 9 10 Noroeste 27 Oeste 0 821.2 0.3 86
2019-06-19 07:00:00 8.8 12 Noroeste 30 Noroeste 0 821.1 0.1 91
2019-06-19 06:00:00 8.9 8 Oeste 23 Sudeste 0 821 -0.2 91
2019-06-19 05:00:00 9.4 7 Sudeste 24 Sur 0 820.9 -0.5 90
2019-06-19 04:00:00 9.2 9 Sur 19 Sudeste 0 821 -0.7 87
2019-06-19 03:00:00 10.3 10 Noroeste 35 Sur 0 821.2 -0.6 75
2019-06-19 02:00:00 11.7 18 Sur 33 Sudoeste 0 821.4 -0.5 63
2019-06-19 01:00:00 12.1 19 Sur 38 Sudoeste 0 821.7 0.1 59
2019-06-19 00:00:00 11.9 12 Sudoeste 40 Oeste 0 821.8 0.3 57
2019-06-18 23:00:00 13.4 11 Sudoeste 25 Sur 0 821.9 0.7 45
2019-06-18 22:00:00 14.2 11 Sur 32 Oeste 0 821.6 0.7 43
2019-06-18 21:00:00 18.5 13 Oeste 58 Oeste 0 821.5 0.8 20
2019-06-18 20:00:00 18.9 14 Sudoeste 45 Sur 0 821.2 0.5 18
2019-06-18 19:00:00 19.5 17 Sudoeste 62 Oeste 0 820.9 0.1 14
2019-06-18 18:00:00 19.7 22 Sudoeste 71 Oeste 0 820.7 -0.1 14
2019-06-18 17:00:00 19.8 19 Sudoeste 59 Oeste 0 820.7 -0.2 16
2019-06-18 16:00:00 18.9 28 Sudoeste 84 Noroeste 0 820.8 0 15
2019-06-18 15:00:00 18.9 18 Sudoeste 55 Sudoeste 0 820.8 -0.5 16
2019-06-18 14:00:00 18.4 18 Noroeste 69 Oeste 0 820.9 -0.4 18
2019-06-18 13:00:00 17.5 21 Noroeste 72 Sudoeste 0 820.8 -0.4 26
2019-06-18 12:00:00 16.7 21 Oeste 64 Sudoeste 0 821.3 0.3 30
2019-06-18 11:00:00 16.2 17 Sur 82 Sudoeste 0 821.3 0.5 28
2019-06-18 10:00:00 15.6 19 Oeste 65 Sudoeste 0 821.2 0.8 25
2019-06-18 09:00:00 15.8 17 Noroeste 63 Sudoeste 0 821 0.5 27
2019-06-18 08:00:00 15.8 22 Oeste 70 Oeste 0 820.8 0.3 25
2019-06-18 07:00:00 14 18 Noroeste 64 Sudeste 0 820.4 -0.6 29
2019-06-18 06:00:00 14.3 14 Nordeste 58 Sudeste 0 820.5 -1.6 31
2019-06-18 05:00:00 14.9 21 Este 56 Sudeste 0 820.5 -2.4 30
2019-06-18 04:00:00 14.7 11 Nordeste 27 Norte 0 821 -2.3 31
2019-06-18 03:00:00 15.5 10 Oeste 25 Oeste 0 822.1 -1.1 29
2019-06-18 02:00:00 13 5 Sudoeste 12 Sur 0 822.9 -0.4 37
2019-06-18 01:00:00 14.1 6 Sur 18 Sur 0 823.3 0.5 34
2019-06-18 00:00:00 15 4 Sudeste 19 Noroeste 0 823.2 0.5 32
2019-06-17 23:00:00 15.9 6 Este 34 Sur 0 823.3 0.6 29
2019-06-17 22:00:00 16.8 13 Sudoeste 26 Sudoeste 0 822.8 0.3 27
2019-06-17 21:00:00 17.6 8 Sudoeste 35 Sudoeste 0 822.7 0 25
2019-06-17 20:00:00 19 17 Oeste 45 Oeste 0 822.7 -0.2 20
2019-06-17 19:00:00 20.5 14 Noroeste 48 Oeste 0 822.5 -0.6 20
2019-06-17 18:00:00 21.3 13 Norte 46 Noroeste 0 822.7 -0.8 19
2019-06-17 17:00:00 20.4 24 Oeste 51 Oeste 0 822.9 -0.9 20
2019-06-17 16:00:00 20.5 20 Oeste 44 Sudoeste 0 823.1 -1.2 22
2019-06-17 15:00:00 20.1 16 Sudoeste 48 Oeste 0 823.5 -0.9 22
2019-06-17 14:00:00 19.6 12 Noroeste 50 Oeste 0 823.8 -0.5 23
2019-06-17 13:00:00 19.2 19 Sudoeste 47 Sudoeste 0 824.3 -0.1 23
2019-06-17 12:00:00 19 12 Oeste 41 Noroeste 0 824.4 0.3 26
2019-06-17 11:00:00 19.1 9 Sudoeste 23 Sudoeste 0 824.3 0.3 25
2019-06-17 10:00:00 17.9 7 Sudeste 22 Sudeste 0 824.4 0.6 26
2019-06-17 09:00:00 15.9 15 Sur 26 Sur 0 824.1 0.4 26
2019-06-17 08:00:00 15.4 8 Sur 21 Sur 0 824 0 30
2019-06-17 07:00:00 11.4 18 Sur 24 Sur 0 823.8 -0.3 37
2019-06-17 06:00:00 10.8 14 Sur 22 Sur 0 823.7 -0.7 41
2019-06-17 05:00:00 11.4 9 Sur 19 Sudoeste 0 824 -0.8 36
2019-06-17 04:00:00 11.1 10 Sur 19 Sur 0 824.1 -0.8 34
2019-06-17 03:00:00 12.9 13 Sur 31 Sur 0 824.4 -0.5 31
2019-06-17 02:00:00 13.4 12 Sur 35 Sur 0 824.8 0.1 31
2019-06-17 01:00:00 14 18 Sudeste 40 Sudeste 0 824.9 0.5 26
2019-06-17 00:00:00 14.3 22 Sur 31 Sudoeste 0 824.9 0.7 28
2019-06-16 23:00:00 14.7 23 Sur 32 Sur 0 824.7 0.7 26
2019-06-16 22:00:00 14.8 22 Sur 36 Sur 0 824.4 0.4 25
2019-06-16 21:00:00 16.2 22 Sur 33 Sudoeste 0 824.2 0.1 23
2019-06-16 20:00:00 17.7 24 Sur 32 Sur 0 824 -0.3 23
2019-06-16 19:00:00 18.6 13 Sudoeste 29 Sudoeste 0 824 -0.5 24
2019-06-16 18:00:00 20.4 15 Sudoeste 30 Sudoeste 0 824.1 -0.8 22
2019-06-16 17:00:00 19.9 13 Sudoeste 44 Oeste 0 824.3 -0.8 21
2019-06-16 16:00:00 20.4 12 Oeste 39 Oeste 0 824.5 -0.5 23
2019-06-16 15:00:00 18.3 14 Sudoeste 50 Noroeste 0 824.9 -0.2 27
2019-06-16 14:00:00 17.5 20 Sudoeste 39 Sudoeste 0 825.1 0 28
2019-06-16 13:00:00 17 22 Sudoeste 48 Sudoeste 0 825 0.1 29
2019-06-16 12:00:00 16.1 18 Sudoeste 48 Sudoeste 0 825.1 0.6 31
2019-06-16 11:00:00 15.6 17 Sur 44 Sudoeste 0 825.1 1.1 31
2019-06-16 10:00:00 14.3 18 Sur 45 Sudoeste 0 824.9 1.3 33
2019-06-16 09:00:00 14 15 Sur 43 Sudeste 0 824.5 0.8 33
2019-06-16 08:00:00 12 26 Sur 44 Sur 0 824 0.2 33
2019-06-16 07:00:00 10.3 33 Sur 46 Sudeste 0 823.6 -0.6 40
2019-06-16 06:00:00 10.4 25 Sur 48 Sudeste 0 823.7 -0.9 41
2019-06-16 05:00:00 10.4 20 Sudeste 39 Sudeste 0 823.8 -1.2 41
2019-06-16 04:00:00 9.6 10 Sudeste 28 Sudeste 0 824.2 -1.2 45
2019-06-16 03:00:00 10.1 6 Sur 29 Sudeste 0 824.6 -0.7 44
2019-06-16 02:00:00 9.2 3 Este 20 Sur 0 825 -0.3 48
2019-06-16 01:00:00 9.5 8 Sudeste 25 Este 0 825.4 0.5 47
2019-06-16 00:00:00 8.4 12 Sudeste 17 Sudeste 0 825.3 0.6 52
2019-06-15 23:00:00 9.2 3 Sur 8 Sudoeste 0 825.3 0.9 49
2019-06-15 22:00:00 10.5 2 Sur 9 Oeste 0 824.9 0.8 43
2019-06-15 21:00:00 14.5 7 Norte 17 Norte 0 824.7 0.6 31
2019-06-15 20:00:00 15.1 9 Noroeste 24 Noroeste 0 824.4 0.3 33
2019-06-15 19:00:00 15.3 11 Norte 28 Norte 0 824.1 0.1 34
2019-06-15 18:00:00 16.2 10 Norte 34 Norte 0 824.1 0 37
2019-06-15 17:00:00 15.6 11 Noroeste 30 Norte 0 824.1 0.2 39
2019-06-15 16:00:00 15.8 9 Nordeste 29 Norte 0 824 0.1 39
2019-06-15 15:00:00 14.7 8 Noroeste 33 Norte 0 824.1 0.3 44
2019-06-15 14:00:00 12.8 12 Norte 28 Norte 0 823.9 0.5 50
2019-06-15 13:00:00 10.9 9 Nordeste 25 Norte 0 823.9 0.9 58
2019-06-15 12:00:00 8.9 8 Norte 18 Este 0 823.8 1.3 67
2019-06-15 11:00:00 7.8 9 Noroeste 17 Noroeste 0 823.4 1.2 63
2019-06-15 10:00:00 9.1 7 Noroeste 15 Oeste 0 823 1.1 59
2019-06-15 09:00:00 7.5 5 Noroeste 14 Oeste 0 822.5 0.8 57
2019-06-15 08:00:00 7 5 Oeste 21 Sudoeste 0 822.2 0.7 69
2019-06-15 07:00:00 2.8 7 Sur 32 Noroeste 0 821.9 0.4 92
2019-06-15 06:00:00 3 9 Noroeste 23 Noroeste 0 821.7 0.2 91
2019-06-15 05:00:00 3.6 6 Este 25 Sudeste 0 821.5 0 86
2019-06-15 04:00:00 3.8 10 Este 28 Sudeste 0 821.5 -0.1 85
2019-06-15 03:00:00 4.1 6 Este 30 Oeste 0 821.5 0.1 75
2019-06-15 02:00:00 5.2 7 Sur 27 Norte 0 821.5 0.4 66
2019-06-15 01:00:00 6.6 10 Sudeste 36 Oeste 0 821.6 1.4 60
2019-06-15 00:00:00 7.5 10 Oeste 29 Oeste 0 821.4 1.9 56
2019-06-14 23:00:00 8.2 6 Sur 26 Oeste 0 821.1 2 53
2019-06-14 22:00:00 9.4 9 Norte 30 Norte 0 820.2 1.7 48
2019-06-14 21:00:00 13.9 9 Este 33 Norte 0 819.5 1.2 33
2019-06-14 20:00:00 13.3 15 Oeste 41 Oeste 0 819.1 0.9 33
2019-06-14 19:00:00 14.3 15 Oeste 41 Oeste 0 818.5 0.3 30
2019-06-14 18:00:00 17.2 15 Sudoeste 46 Sur 0 818.3 0.2 25
2019-06-14 17:00:00 15.9 18 Sudoeste 53 Oeste 0 818.2 0.3 26
2019-06-14 16:00:00 15.7 24 Sudoeste 51 Oeste 0 818.2 0.3 28
2019-06-14 15:00:00 15.6 19 Sudoeste 54 Oeste 0 818.1 0.5 25
2019-06-14 14:00:00 15.6 14 Sudoeste 49 Noroeste 0 817.9 0.4 29
2019-06-14 13:00:00 14.4 17 Oeste 54 Sudoeste 0 817.9 0.6 25
2019-06-14 12:00:00 13.8 24 Sudoeste 63 Sur 0 817.6 0.3 39
2019-06-14 11:00:00 12.7 28 Sur 65 Sudoeste 0 817.5 0.4 39
2019-06-14 10:00:00 12.5 22 Sur 58 Sudoeste 0 817.3 0.2 35
2019-06-14 09:00:00 12.8 19 Sudoeste 41 Oeste 0 817.3 0.4 30
2019-06-14 08:00:00 12.3 18 Sudoeste 47 Sudoeste 0 817.1 0.2 33
2019-06-14 07:00:00 10.4 20 Sur 46 Sur 0 817.1 -0.1 41
2019-06-14 06:00:00 10.4 28 Sur 42 Sudoeste 0 816.9 -0.4 34
2019-06-14 05:00:00 10.4 10 Noroeste 31 Este 0 816.9 -0.7 34
2019-06-14 04:00:00 10.2 8 Sudeste 30 Oeste 0 817.2 -1.1 29
2019-06-14 03:00:00 11.6 12 Oeste 38 Sudoeste 0 817.3 -1.2 26
2019-06-14 02:00:00 8.9 5 Sudoeste 23 Sur 0 817.6 -0.7 34
2019-06-14 01:00:00 10.1 9 Sur 24 Sur 0 818.3 0.8 28
2019-06-14 00:00:00 10.8 13 Sur 28 Sur 0 818.5 1.3 29
2019-06-13 23:00:00 11 9 Sudeste 31 Sur 0 818.3 1.7 33
2019-06-13 22:00:00 12.3 12 Sur 24 Sur 0 817.5 1.1 31
2019-06-13 21:00:00 14.2 9 Oeste 28 Noroeste 0 817.2 0.7 29
2019-06-13 20:00:00 15.5 11 Oeste 51 Oeste 0 816.6 0 26
2019-06-13 19:00:00 17.7 6 Sudoeste 55 Oeste 0 816.4 -0.2 26
2019-06-13 18:00:00 17.5 20 Oeste 59 Sudoeste 0 816.5 -0.1 24
2019-06-13 17:00:00 17.2 19 Sudoeste 49 Oeste 0 816.6 0 31
2019-06-13 16:00:00 16.4 22 Sudoeste 66 Sudoeste 0 816.6 -0.4 36
2019-06-13 15:00:00 15.7 23 Oeste 71 Oeste 0 816.6 -0.4 40
2019-06-13 14:00:00 14.5 23 Noroeste 71 Sudoeste 0 816.6 -0.2 42
2019-06-13 13:00:00 13.6 13 Sudoeste 69 Sudeste 0 817 0.5 48
2019-06-13 12:00:00 12.3 14 Sudeste 55 Sudeste 0 817 0.7 58
2019-06-13 11:00:00 10.9 17 Sudeste 58 Sudeste 0 816.8 0.8 54
2019-06-13 10:00:00 9.6 22 Sur 53 Sudeste 0 816.5 0.5 64
2019-06-13 09:00:00 8 23 Sur 57 Sudeste 0 816.3 0.6 74
2019-06-13 08:00:00 6.7 25 Sur 58 Sudoeste 0 816 0.4 80
2019-06-13 07:00:00 6.2 18 Sudoeste 51 Oeste 0 816 0.3 83
2019-06-13 06:00:00 6.8 23 Sur 59 Sudoeste 0 815.7 -0.2 82
2019-06-13 05:00:00 7.1 18 Sudoeste 54 Oeste 0 815.6 -0.7 77
2019-06-13 04:00:00 7.2 16 Sudoeste 56 Sudoeste 0 815.7 -1.1 74
2019-06-13 03:00:00 8.2 13 Sur 42 Oeste 0 815.9 -1.1 36
2019-06-13 02:00:00 9.6 15 Oeste 44 Oeste 0 816.3 -1 31
2019-06-13 01:00:00 9.2 13 Sudoeste 30 Sudoeste 0 816.8 -0.3 31
2019-06-13 00:00:00 9.4 13 Sur 30 Sudoeste 0 817 0.1 28
2019-06-12 23:00:00 9.9 8 Sudoeste 24 Sudoeste 0 817.3 0.3 27
2019-06-12 22:00:00 10 10 Sudoeste 30 Oeste 0 817.1 0.1 29
2019-06-12 21:00:00 11.9 9 Sudoeste 34 Oeste 0 816.9 -0.4 30
2019-06-12 20:00:00 14.1 8 Noroeste 39 Oeste 0 817 -0.5 27
2019-06-12 19:00:00 12.6 14 Oeste 44 Oeste 0 817 -0.8 31
2019-06-12 18:00:00 13.1 14 Sudeste 41 Sur 0 817.3 -0.8 34
2019-06-12 17:00:00 13.7 13 Oeste 37 Sudoeste 0 817.5 -0.8 36
2019-06-12 16:00:00 12 13 Sudoeste 32 Oeste 0 817.8 -0.5 39
2019-06-12 15:00:00 12.2 9 Oeste 34 Oeste 0 818.1 -0.4 38
2019-06-12 14:00:00 10 14 Oeste 31 Noroeste 0 818.3 0 50
2019-06-12 13:00:00 10.2 10 Norte 23 Norte 0 818.3 0.2 57
2019-06-12 12:00:00 7.7 10 Norte 21 Norte 0 818.5 0.5 64
2019-06-12 11:00:00 7.8 13 Noroeste 27 Sudoeste 0 818.3 0.7 65
2019-06-12 10:00:00 8 5 Este 16 Oeste 0 818.1 0.6 60
2019-06-12 09:00:00 6 9 Noroeste 25 Noroeste 0 818 0.6 63
2019-06-12 08:00:00 6.2 8 Sudoeste 23 Sur 0 817.6 0 59
2019-06-12 07:00:00 2.1 11 Sudoeste 20 Sudoeste 0 817.5 -0.3 79
2019-06-12 06:00:00 1.5 8 Sur 16 Sur 0 817.4 -0.7 81
2019-06-12 05:00:00 2.5 7 Sudeste 19 Sudeste 0 817.6 -0.8 76
2019-06-12 04:00:00 2.6 11 Sur 18 Sudoeste 0 817.8 -1 74
2019-06-12 03:00:00 2.8 5 Sur 18 Sudoeste 0 818.1 -0.9 72
2019-06-12 02:00:00 2.6 2 Oeste 9 Oeste 0 818.4 -0.7 72
2019-06-12 01:00:00 2.4 3 Sudoeste 9 Oeste 0 818.8 -0.3 73
2019-06-12 00:00:00 2.6 4 Sudoeste 11 Sudoeste 0 819 0 73
2019-06-11 23:00:00 2.7 6 Este 10 Este 0 819.1 0.3 73
2019-06-11 22:00:00 3.7 3 Nordeste 30 Norte 0 819.1 0.5 68
2019-06-11 21:00:00 6.5 18 Norte 39 Norte 0 819 0.4 54
2019-06-11 20:00:00 6.7 23 Norte 47 Norte 0 818.8 0.2 50
2019-06-11 19:00:00 7.6 25 Norte 47 Norte 0 818.6 0.2 46
2019-06-11 18:00:00 7 26 Norte 51 Nordeste 0 818.6 0.1 47
2019-06-11 17:00:00 6.3 22 Norte 44 Norte 0 818.6 0.3 54
2019-06-11 16:00:00 7.1 17 Norte 44 Norte 0 818.4 0.4 53
2019-06-11 15:00:00 4.9 23 Norte 42 Norte 0 818.5 0.7 69
2019-06-11 14:00:00 3.4 25 Norte 44 Norte 0.4 818.3 0.8 91
2019-06-11 13:00:00 2.1 16 Norte 41 Norte 0.2 818 0.7 97
2019-06-11 12:00:00 2.1 22 Norte 38 Norte 0 817.8 0.9 98
2019-06-11 11:00:00 1.4 14 Norte 30 Nordeste 0 817.5 0.8 99
2019-06-11 10:00:00 1.7 17 Norte 39 Nordeste 0.2 817.3 0.8 99
2019-06-11 09:00:00 2.5 12 Noroeste 27 Norte 1.6 816.9 0.2 98
2019-06-11 08:00:00 2.7 13 Noroeste 21 Oeste 0.2 816.7 -0.3 98
2019-06-11 07:00:00 2.8 9 Noroeste 19 Noroeste 0.2 816.5 -1.1 97
2019-06-11 06:00:00 3.6 7 Sudoeste 18 Noroeste 0 816.7 -1 94
2019-06-11 05:00:00 5.3 8 Sudoeste 28 Sudeste 0 817 -1.3 75
2019-06-11 04:00:00 5.8 5 Sudeste 46 Oeste 0 817.6 -1.1 70
2019-06-11 03:00:00 7.9 11 Sudeste 35 Sur 0 817.7 -1.2 56
2019-06-11 02:00:00 8.4 14 Sudeste 36 Sur 0 818.3 -1.2 52
2019-06-11 01:00:00 9.2 7 Norte 48 Noroeste 0 818.7 -0.7 44
2019-06-11 00:00:00 9.6 7 Norte 26 Sur 0 818.9 -0.6 41
2019-06-10 23:00:00 8.4 3 Sur 18 Sur 0 819.5 -0.1 51
2019-06-10 22:00:00 7.7 0 Calma 16 Norte 0 819.4 -0.7 62
2019-06-10 21:00:00 11.5 7 Norte 31 Noroeste 0 819.5 -0.9 47
2019-06-10 20:00:00 13.1 13 Norte 32 Norte 0 819.6 -1.2 34
2019-06-10 19:00:00 13.1 15 Norte 33 Norte 0 820.1 -1 35
2019-06-10 18:00:00 12.7 16 Norte 44 Norte 0 820.4 -1 41
2019-06-10 17:00:00 13.7 14 Noroeste 43 Norte 0 820.8 -0.9 38
2019-06-10 16:00:00 13.1 8 Noroeste 37 Noroeste 0 821.1 -0.8 41
2019-06-10 15:00:00 11.1 13 Noroeste 33 Norte 0 821.4 -0.6 42
2019-06-10 14:00:00 11.8 10 Norte 30 Nordeste 0 821.7 -0.2 50
2019-06-10 13:00:00 10.7 12 Noroeste 25 Noroeste 0 821.9 0.2 55
2019-06-10 12:00:00 9.2 11 Noroeste 22 Noroeste 0 822 0.5 63
2019-06-10 11:00:00 8.8 8 Oeste 20 Noroeste 0 821.9 0.7 67
2019-06-10 10:00:00 8.9 10 Oeste 19 Oeste 0 821.7 0.5 67
2019-06-10 09:00:00 10.1 6 Oeste 15 Noroeste 0 821.5 0.1 64
2019-06-10 08:00:00 8.7 6 Sur 13 Oeste 0 821.2 -0.2 65
2019-06-10 07:00:00 5.3 6 Sudoeste 12 Oeste 0 821.2 -0.7 80
2019-06-10 06:00:00 4.2 3 Sudoeste 14 Sudoeste 0 821.4 -1.1 86
2019-06-10 05:00:00 5.5 8 Sudoeste 16 Sudoeste 0 821.4 -1.2 90
2019-06-10 04:00:00 6.1 9 Sudoeste 15 Sur 0 821.9 -0.9 86
2019-06-10 03:00:00 6.5 7 Sur 15 Sudoeste 0 822.5 -0.3 83
2019-06-10 02:00:00 6.7 6 Sudoeste 14 Sudoeste 0 822.6 -0.2 79
2019-06-10 01:00:00 7.4 3 Oeste 18 Oeste 0 822.8 0.8 79
2019-06-10 00:00:00 8.1 6 Sudeste 27 Noroeste 0 822.8 1.1 61
2019-06-09 23:00:00 9.5 10 Norte 31 Norte 0 822.8 1.3 51
2019-06-09 22:00:00 10.9 9 Norte 28 Noroeste 0 822 0.8 42
2019-06-09 21:00:00 12.7 10 Noroeste 26 Noroeste 0 821.7 0.3 37
2019-06-09 20:00:00 13.6 11 Norte 32 Norte 0 821.5 0.1 36
2019-06-09 19:00:00 16.4 9 Norte 31 Nordeste 0 821.2 -0.6 31
2019-06-09 18:00:00 16 12 Norte 37 Nordeste 0 821.4 -0.5 29
2019-06-09 17:00:00 16.1 17 Norte 35 Norte 0 821.4 -0.7 30
2019-06-09 16:00:00 15.8 9 Norte 37 Norte 0 821.8 -0.6 31
2019-06-09 15:00:00 17.2 8 Nordeste 40 Norte 0 821.9 -0.4 32
2019-06-09 14:00:00 16.1 9 Noroeste 36 Noroeste 0 822.1 -0.1 36
2019-06-09 13:00:00 13.9 13 Oeste 31 Norte 0 822.4 0.4 42
2019-06-09 12:00:00 14.3 10 Norte 27 Norte 0 822.3 0.5 48
2019-06-09 11:00:00 13.2 12 Norte 32 Sur 0 822.2 0.4 56
2019-06-09 10:00:00 13.4 13 Sudoeste 44 Sur 0 822 0.3 42
2019-06-09 09:00:00 12.5 20 Sur 37 Sur 0 821.8 0 44
2019-06-09 08:00:00 11.6 22 Sur 39 Sur 0 821.8 -0.2 45
2019-06-09 07:00:00 9.4 18 Sur 33 Sur 0 821.7 -0.7 51
2019-06-09 06:00:00 9.9 21 Sur 40 Sur 0 821.8 -0.6 49
2019-06-09 05:00:00 9.6 26 Sur 44 Sur 0 822 -0.9 57
2019-06-09 04:00:00 9.5 23 Sur 46 Sudeste 0 822.4 -0.9 67
2019-06-09 03:00:00 9.3 27 Sur 50 Sur 0 822.4 -1.2 76
2019-06-09 02:00:00 10.1 17 Sur 47 Sudoeste 0 822.9 -0.7 74
2019-06-09 01:00:00 10.7 14 Sur 53 Sudoeste 0 823.3 -0.1 75
2019-06-09 00:00:00 11.6 10 Sur 41 Sudoeste 0 823.6 0.6 62
2019-06-08 23:00:00 11.6 9 Nordeste 39 Norte 0 823.6 0.6 67
2019-06-08 22:00:00 12.2 4 Nordeste 23 Norte 0 823.4 0.6 60
2019-06-08 21:00:00 14 8 Nordeste 26 Sur 0 823 0.1 39
2019-06-08 20:00:00 15.8 9 Noroeste 48 Sudoeste 0 823 -0.2 42
2019-06-08 19:00:00 16.4 10 Norte 54 Oeste 0 822.8 -0.9 44
2019-06-08 18:00:00 16.8 15 Norte 47 Oeste 0 822.9 -1.3 43
2019-06-08 17:00:00 17.7 17 Sudeste 49 Sudeste 0 823.2 -1.2 38
2019-06-08 16:00:00 17.1 12 Noroeste 54 Sudeste 0 823.7 -0.7 43
2019-06-08 15:00:00 14.7 26 Sudeste 63 Sudeste 0 824.2 -0.4 46
2019-06-08 14:00:00 15.3 22 Sur 58 Sur 0 824.4 0 43
2019-06-08 13:00:00 14.7 22 Sur 46 Sudeste 0 824.4 -0.1 37
2019-06-08 12:00:00 12.8 25 Sur 59 Sur 0 824.6 0.4 43
2019-06-08 11:00:00 11.3 24 Sudeste 71 Sudeste 0 824.4 0.4 39
2019-06-08 10:00:00 10.1 27 Sudeste 58 Sudeste 0 824.5 0.9 35
2019-06-08 09:00:00 9.8 27 Sur 69 Sur 0 824.2 0.4 37
2019-06-08 08:00:00 8.5 31 Sur 58 Sur 0 824 -0.2 40
2019-06-08 07:00:00 6.3 42 Sur 51 Sur 0 823.6 -0.8 50
2019-06-08 06:00:00 6.2 35 Sudeste 50 Sur 0 823.8 -0.8 51
2019-06-08 05:00:00 6.3 17 Sudeste 40 Sudeste 0 824.2 -0.5 51
2019-06-08 04:00:00 3.9 3 Noroeste 10 Sur 0 824.4 -0.4 59
2019-06-08 03:00:00 2.5 3 Sur 8 Sur 0 824.6 -0.1 69
2019-06-08 02:00:00 2.5 5 Sur 9 Sur 0 824.7 0.1 70
2019-06-08 01:00:00 2.9 5 Sudeste 10 Sudeste 0 824.8 0.6 70
2019-06-08 00:00:00 3.4 7 Sur 11 Sur 0 824.7 0.9 69
2019-06-07 23:00:00 4.5 6 Sudoeste 15 Sur 0 824.6 1.2 63
2019-06-07 22:00:00 5.4 3 Sur 18 Noroeste 0 824.2 1.3 57
2019-06-07 21:00:00 9.4 8 Noroeste 24 Norte 0 823.8 1.2 42
2019-06-07 20:00:00 9.8 10 Noroeste 33 Noroeste 0 823.4 1.1 41
2019-06-07 19:00:00 10 8 Oeste 27 Noroeste 0 822.9 1 43
2019-06-07 18:00:00 9.3 14 Norte 34 Nordeste 0 822.6 1.2 52
2019-06-07 17:00:00 9.9 12 Noroeste 30 Norte 0 822.3 1.4 49
2019-06-07 16:00:00 8 10 Noroeste 30 Norte 0 821.9 1.8 54
2019-06-07 15:00:00 7.1 13 Oeste 38 Oeste 0 821.4 2 59
2019-06-07 14:00:00 6.2 12 Norte 40 Norte 0 820.9 2.4 67
2019-06-07 13:00:00 5 16 Norte 41 Norte 0 820.1 2.1 73
2019-06-07 12:00:00 4.7 11 Sudoeste 36 Oeste 0 819.4 2.2 82
2019-06-07 11:00:00 1.5 12 Sudoeste 39 Oeste 0 818.5 2.4 91
2019-06-07 10:00:00 0.3 11 Nordeste 47 Oeste 0 818 2.3 99
2019-06-07 09:00:00 -0.3 19 Norte 62 Norte 0 817.2 2.5 99
2019-06-07 08:00:00 -0.4 17 Sudeste 57 Sudoeste 0 816.1 1.5 99
2019-06-07 07:00:00 -0.2 19 Noroeste 60 Este 0 815.7 1.3 98
2019-06-07 06:00:00 -0.1 17 Norte 56 Noroeste 0 814.7 0.2 98
2019-06-07 05:00:00 0.7 18 Norte 66 Noroeste 0.8 814.6 0.2 99
2019-06-07 04:00:00 0.3 16 Nordeste 54 Noroeste 0.2 814.4 0.7 99
2019-06-07 03:00:00 1.3 15 Nordeste 37 Noroeste 3 814.5 0.9 98
2019-06-07 02:00:00 3.4 15 Noroeste 89 Sudoeste 1.2 814.4 0.5 97
2019-06-07 01:00:00 7.5 27 Sudoeste 66 Sudoeste 0.2 813.7 0.2 66
2019-06-07 00:00:00 8.9 38 Sudoeste 86 Oeste 0 813.6 0.3 52
2019-06-06 23:00:00 8.9 33 Sudoeste 83 Sur 0 813.9 0.5 48
2019-06-06 22:00:00 9.1 39 Sudoeste 88 Oeste 0 813.5 -0.3 47
2019-06-06 21:00:00 10.1 34 Sudoeste 92 Sur 0 813.3 -0.9 41
2019-06-06 20:00:00 11.8 28 Sudoeste 83 Sur 0 813.4 -1.2 34
2019-06-06 19:00:00 12.4 29 Sudoeste 81 Sudoeste 0 813.8 -1.2 29
2019-06-06 18:00:00 12.1 35 Sudoeste 86 Sudoeste 0 814.2 -1.3 31
2019-06-06 17:00:00 12.8 20 Sudoeste 90 Sudeste 0 814.6 -1.3 26
2019-06-06 16:00:00 11.7 27 Sudoeste 87 Sudoeste 0 815 -0.7 29
2019-06-06 15:00:00 11.8 19 Sudoeste 67 Sudoeste 0 815.5 -0.6 32
2019-06-06 14:00:00 10.7 33 Sudoeste 77 Sudoeste 0 815.9 -0.5 35
2019-06-06 13:00:00 8.9 37 Sur 87 Sudeste 0 815.7 -1 39
2019-06-06 12:00:00 8.3 32 Sur 64 Sudoeste 0 816.1 -0.3 43
2019-06-06 11:00:00 8.5 11 Sur 51 Sudeste 0 816.4 -0.4 38
2019-06-06 10:00:00 6.6 28 Sur 69 Sudeste 0 816.7 -0.3 60
2019-06-06 09:00:00 5.3 34 Sur 61 Sudeste 0 816.4 -1 65
2019-06-06 08:00:00 4.6 23 Sur 42 Sudeste 0 816.8 -0.8 68
2019-06-06 07:00:00 3.5 11 Sudoeste 37 Oeste 0 817 -0.7 72
2019-06-06 06:00:00 1.4 5 Sudoeste 18 Sudoeste 0 817.4 -0.8 84
2019-06-06 05:00:00 2.1 10 Sur 24 Sur 0 817.6 -0.7 82
2019-06-06 04:00:00 2.5 10 Sur 23 Sur 0 817.7 -0.9 80
2019-06-06 03:00:00 3.4 5 Sudoeste 16 Noroeste 0 818.2 -0.4 75
2019-06-06 02:00:00 3.6 5 Sur 17 Sudoeste 0 818.3 -0.3 74
2019-06-06 01:00:00 4.3 5 Oeste 15 Sudeste 0 818.6 0.3 67
2019-06-06 00:00:00 4.7 5 Este 17 Nordeste 0 818.6 0.6 62
2019-06-05 23:00:00 5 5 Nordeste 21 Noroeste 0 818.6 0.9 60
2019-06-05 22:00:00 6 6 Este 24 Sudoeste 0 818.3 0.9 51
2019-06-05 21:00:00 7.3 12 Sur 33 Oeste 0 818 0.5 46
2019-06-05 20:00:00 7.9 10 Noroeste 38 Norte 0 817.7 0.3 46
2019-06-05 19:00:00 7.9 10 Noroeste 36 Norte 0 817.4 0.2 52
2019-06-05 18:00:00 8.1 15 Norte 39 Norte 0 817.5 -0.1 54
2019-06-05 17:00:00 8.1 16 Noroeste 41 Norte 0 817.4 0 63
2019-06-05 16:00:00 7.3 18 Norte 40 Norte 0 817.2 0.2 69
2019-06-05 15:00:00 4.7 9 Norte 39 Noroeste 0 817.6 1.3 88
2019-06-05 14:00:00 3.8 12 Norte 39 Norte 0 817.4 1.8 98
2019-06-05 13:00:00 2.8 10 Norte 40 Norte 0 817 1.9 99
2019-06-05 12:00:00 2 19 Noroeste 56 Norte 0 816.3 2.5 99
2019-06-05 11:00:00 1.5 19 Noroeste 49 Noroeste 0 815.6 1.7 99
2019-06-05 10:00:00 1.4 19 Norte 53 Norte 1.2 815.1 1.4 99
2019-06-05 09:00:00 1.2 12 Sudeste 44 Oeste 3.6 813.8 0 99
2019-06-05 08:00:00 1.6 12 Norte 39 Norte 0.8 813.9 -0.4 99
2019-06-05 07:00:00 2.2 11 Sudoeste 37 Oeste 0.4 813.7 -0.8 99
2019-06-05 06:00:00 2.6 12 Oeste 29 Oeste 2.4 813.8 -1 98
2019-06-05 05:00:00 3.6 8 Noroeste 39 Sudoeste 0.4 814.3 -0.8 93
2019-06-05 04:00:00 5.9 14 Noroeste 32 Oeste 0 814.5 -1.1 85
2019-06-05 03:00:00 6.8 7 Noroeste 24 Sudoeste 0 814.8 -1.3 85
2019-06-05 02:00:00 7.9 7 Noroeste 19 Noroeste 0 815.1 -1.7 88
2019-06-05 01:00:00 8.5 6 Oeste 17 Noroeste 0 815.6 -1.3 86
2019-06-05 00:00:00 9 5 Noroeste 14 Oeste 0 816.1 -0.6 84
2019-06-04 23:00:00 10 4 Sur 22 Noroeste 0 816.8 -0.1 80
2019-06-04 22:00:00 10.7 10 Noroeste 33 Sudoeste 0 816.9 0 76
2019-06-04 21:00:00 13.4 7 Este 22 Sur 0 816.7 -0.4 56
2019-06-04 20:00:00 14 7 Oeste 23 Oeste 0 816.9 -0.3 53
2019-06-04 19:00:00 15.8 8 Norte 33 Noroeste 0 816.9 -0.6 49
2019-06-04 18:00:00 15.8 14 Oeste 53 Oeste 0 817.1 -0.8 49
2019-06-04 17:00:00 17.9 17 Oeste 59 Sudoeste 0 817.2 -1.1 36
2019-06-04 16:00:00 18.2 14 Noroeste 58 Sudoeste 0 817.5 -1.1 37
2019-06-04 15:00:00 17.9 19 Sudoeste 58 Sudoeste 0 817.9 -0.7 38
2019-06-04 14:00:00 17.4 13 Sudoeste 47 Sudoeste 0 818.3 -0.4 38
2019-06-04 13:00:00 16.7 18 Sudoeste 48 Sudoeste 0 818.6 -0.1 41
2019-06-04 12:00:00 15.9 24 Sudoeste 45 Sudoeste 0 818.6 0 45
2019-06-04 11:00:00 15 21 Sur 45 Sudoeste 0 818.7 0 49
2019-06-04 10:00:00 14.1 26 Sur 54 Sudoeste 0 818.7 0 46
2019-06-04 09:00:00 13.7 29 Sur 51 Sudoeste 0 818.6 -0.3 46
2019-06-04 08:00:00 14.3 19 Sudoeste 50 Sudoeste 0 818.7 -0.7 32
2019-06-04 07:00:00 14.2 25 Sudoeste 61 Sudoeste 0 818.7 -1.2 30
2019-06-04 06:00:00 14.9 32 Sudoeste 61 Sudoeste 0 818.9 -1.6 29
2019-06-04 05:00:00 15.1 27 Sudoeste 56 Sudoeste 0 819.4 -2 29
2019-06-04 04:00:00 15.7 21 Sudoeste 47 Sudoeste 0 819.9 -2 29
2019-06-04 03:00:00 14.9 10 Sudeste 37 Sur 0 820.5 -2 31
2019-06-04 02:00:00 16 21 Sudoeste 41 Sudoeste 0 821.4 -1.4 26
2019-06-04 01:00:00 16.5 13 Sur 37 Sur 0 821.9 -0.6 25
2019-06-04 00:00:00 16.3 10 Sudeste 34 Sudeste 0 822.5 0 26
2019-06-03 23:00:00 16.7 15 Sudoeste 39 Sudoeste 0 822.8 0.3 24
2019-06-03 22:00:00 17.4 18 Sudoeste 39 Sudoeste 0 822.5 -0.1 23
2019-06-03 21:00:00 19.1 11 Sur 37 Oeste 0 822.5 -0.3 22
2019-06-03 20:00:00 20.9 9 Este 29 Sudoeste 0 822.5 -0.5 19
2019-06-03 19:00:00 22.2 13 Noroeste 44 Norte 0 822.6 -0.7 13
2019-06-03 18:00:00 21.4 15 Sudoeste 47 Noroeste 0 822.8 -1.2 25
2019-06-03 17:00:00 22.2 12 Noroeste 48 Oeste 0 823 -1.2 24
2019-06-03 16:00:00 21 20 Oeste 48 Oeste 0 823.3 -1.2 29
2019-06-03 15:00:00 21.6 17 Sudoeste 50 Oeste 0 824 -0.5 31
2019-06-03 14:00:00 21.5 13 Oeste 37 Noroeste 0 824.2 -0.1 29
2019-06-03 13:00:00 21.3 6 Sudeste 32 Oeste 0 824.5 0.2 35
2019-06-03 12:00:00 20.4 10 Sudoeste 27 Sudoeste 0 824.5 0.2 31
2019-06-03 11:00:00 20 7 Sur 33 Oeste 0 824.3 0.3 28
2019-06-03 10:00:00 18.2 19 Sur 33 Sur 0 824.3 0.1 32
2019-06-03 09:00:00 17.7 15 Sur 40 Sur 0 824.3 0.1 32
2019-06-03 08:00:00 16.3 22 Sur 38 Sudeste 0 824 -0.3 33
2019-06-03 07:00:00 13.8 5 Sur 18 Sudoeste 0 824.2 -0.3 40
2019-06-03 06:00:00 12.8 10 Sudoeste 15 Oeste 0 824.2 -0.9 42
2019-06-03 05:00:00 12.6 13 Sudoeste 22 Oeste 0 824.3 -1 49
2019-06-03 04:00:00 12.8 10 Sudoeste 15 Sur 0 824.5 -0.9 46
2019-06-03 03:00:00 14.3 5 Sudoeste 10 Sur 0 825.1 -0.8 36
2019-06-03 02:00:00 14.2 5 Sudoeste 9 Sudoeste 0 825.3 -0.5 39
2019-06-03 01:00:00 13.9 6 Sur 12 Sur 0 825.4 -0.4 43
2019-06-03 00:00:00 14.9 2 Este 12 Oeste 0 825.9 0.4 38
2019-06-02 23:00:00 15.6 3 Sudoeste 18 Noroeste 0 825.8 0.8 40
2019-06-02 22:00:00 16.9 8 Sur 32 Sur 0 825.8 0.8 33
2019-06-02 21:00:00 15.2 32 Sur 76 Sur 0.6 825.5 0.2 56
2019-06-02 20:00:00 20.1 11 Sur 26 Oeste 0 825 -0.4 32
2019-06-02 19:00:00 21.7 8 Oeste 23 Sudoeste 0 825 -0.7 29
2019-06-02 18:00:00 22.3 8 Oeste 27 Noroeste 0 825.3 -0.6 23
2019-06-02 17:00:00 21.2 15 Norte 31 Norte 0 825.4 -1.1 26
2019-06-02 16:00:00 21.7 7 Norte 33 Noroeste 0 825.7 -1 24
2019-06-02 15:00:00 22.2 10 Noroeste 41 Norte 0 825.9 -0.9 25
2019-06-02 14:00:00 22.4 8 Noroeste 33 Noroeste 0 826.5 -0.2 28
2019-06-02 13:00:00 21.9 10 Noroeste 27 Norte 0 826.7 0.1 33
2019-06-02 12:00:00 20.8 11 Noroeste 24 Norte 0 826.8 0.6 31
2019-06-02 11:00:00 20.6 7 Noroeste 18 Noroeste 0 826.7 0.7 31
2019-06-02 10:00:00 19.2 7 Oeste 17 Noroeste 0 826.6 0.9 35
2019-06-02 09:00:00 18.5 8 Noroeste 25 Sur 0 826.2 0.7 40
2019-06-02 08:00:00 17.4 9 Sur 22 Sudoeste 0 826 0.5 32
2019-06-02 07:00:00 15.7 9 Sudoeste 23 Sur 0 825.7 0 32
2019-06-02 06:00:00 14.8 19 Sur 38 Sur 0 825.5 -0.6 35
2019-06-02 05:00:00 14.3 34 Sur 50 Sur 0 825.5 -0.9 36
2019-06-02 04:00:00 15 36 Sur 49 Sur 0 825.7 -0.7 33
2019-06-02 03:00:00 16.6 12 Sur 25 Sur 0 826.1 -0.7 28
2019-06-02 02:00:00 16.4 22 Sur 31 Sur 0 826.4 -0.5 31
2019-06-02 01:00:00 17 24 Sur 31 Sur 0 826.4 -0.1 31
2019-06-02 00:00:00 17.2 23 Sur 30 Sur 0 826.8 0.4 32
2019-06-01 23:00:00 17.1 19 Sur 26 Sur 0 826.9 0.6 34
2019-06-01 22:00:00 17.9 18 Sur 25 Sur 0 826.5 0.1 34
2019-06-01 21:00:00 22.1 3 Noroeste 13 Norte 0 826.4 -0.3 19
2019-06-01 20:00:00 22.8 8 Norte 19 Norte 0 826.3 -0.6 16
2019-06-01 19:00:00 23.1 10 Norte 22 Norte 0 826.4 -1 16
2019-06-01 18:00:00 23.1 12 Norte 28 Nordeste 0 826.7 -0.8 16
2019-06-01 17:00:00 24.1 7 Noroeste 24 Norte 0 826.9 -1 15
2019-06-01 16:00:00 23.6 11 Norte 36 Norte 0 827.4 -0.7 16
2019-06-01 15:00:00 22.6 14 Norte 30 Norte 0 827.5 -0.7 19
2019-06-01 14:00:00 22 11 Norte 28 Norte 0 827.9 -0.2 20
2019-06-01 13:00:00 21.5 13 Norte 26 Norte 0 828.1 0.1 19
2019-06-01 12:00:00 21.1 7 Norte 26 Norte 0 828.2 0.5 28
2019-06-01 11:00:00 20.7 5 Noroeste 21 Norte 0 828.1 0.4 26
2019-06-01 10:00:00 18.9 9 Noroeste 21 Noroeste 0 828 0.7 26
2019-06-01 09:00:00 18.4 8 Oeste 19 Sur 0 827.7 0.5 26
2019-06-01 08:00:00 16 12 Sur 23 Sur 0 827.7 0.4 31
2019-06-01 07:00:00 14.7 13 Sur 23 Sudoeste 0 827.3 0 31
2019-06-01 06:00:00 14 14 Sur 35 Sur 0 827.2 -0.3 33
2019-06-01 05:00:00 14 24 Sur 42 Sur 0 827.3 -0.5 33
2019-06-01 04:00:00 14.1 36 Sur 48 Sur 0 827.3 -1.2 34
2019-06-01 03:00:00 14.8 33 Sur 47 Sur 0 827.5 -1.1 34
2019-06-01 02:00:00 15 36 Sur 45 Sur 0 827.8 -0.7 38
2019-06-01 01:00:00 16.7 16 Sur 34 Sudeste 0 828.5 0.3 26
2019-06-01 00:00:00 16.7 19 Sur 32 Sur 0 828.6 0.5 26
2019-05-31 23:00:00 16.6 21 Sur 30 Sur 0 828.5 0.5 29
2019-05-31 22:00:00 17 18 Sur 25 Sur 0 828.2 0.1 32
2019-05-31 21:00:00 21.7 2 Noroeste 18 Norte 0 828.1 -0.2 17
2019-05-31 20:00:00 21.8 9 Norte 24 Norte 0 828 -0.5 17
2019-05-31 19:00:00 22.2 9 Nordeste 26 Norte 0 828.1 -0.7 20
2019-05-31 18:00:00 22.5 7 Noroeste 27 Norte 0 828.3 -0.7 22
2019-05-31 17:00:00 22.2 11 Norte 25 Norte 0 828.5 -0.7 22
2019-05-31 16:00:00 21.5 10 Noroeste 28 Norte 0 828.8 -0.6 24
2019-05-31 15:00:00 21 12 Nordeste 29 Nordeste 0 829 -0.4 25
2019-05-31 14:00:00 20.9 9 Norte 25 Norte 0 829.2 -0.1 27
2019-05-31 13:00:00 19.2 12 Norte 26 Norte 0 829.4 0.2 29
2019-05-31 12:00:00 18 10 Norte 24 Noroeste 0 829.4 0.4 29
2019-05-31 11:00:00 18.4 9 Nordeste 17 Nordeste 0 829.3 0.4 32
2019-05-31 10:00:00 17.7 4 Nordeste 14 Sur 0 829.2 0.5 32
2019-05-31 09:00:00 15.6 9 Sudeste 14 Sur 0 829 0.3 32
2019-05-31 08:00:00 13.1 5 Sur 9 Sudoeste 0 828.9 0.2 36
2019-05-31 07:00:00 10.8 6 Sur 15 Sur 0 828.7 -0.4 40
2019-05-31 06:00:00 12.2 16 Sur 40 Sur 0 828.7 -0.9 34
2019-05-31 05:00:00 12.6 25 Sur 35 Sur 0 828.7 -1.3 31
2019-05-31 04:00:00 12.7 20 Sur 29 Sur 0 829.1 -1 34
2019-05-31 03:00:00 12.1 14 Sur 22 Sur 0 829.6 -0.4 35
2019-05-31 02:00:00 13.1 14 Sur 34 Sudeste 0 830 0 33
2019-05-31 01:00:00 12.7 28 Sudeste 47 Sudeste 0 830.1 0.7 44
2019-05-31 00:00:00 13.1 37 Sudeste 49 Sudeste 0 830 0.5 39
2019-05-30 23:00:00 14.1 32 Sudeste 42 Sudeste 0 830 0.7 30
2019-05-30 22:00:00 15 22 Sudeste 35 Sudeste 0 829.4 0 29
2019-05-30 21:00:00 18.3 8 Norte 21 Norte 0 829.5 0 27
2019-05-30 20:00:00 19.6 14 Norte 26 Norte 0 829.3 -0.5 24
2019-05-30 19:00:00 20 15 Norte 32 Norte 0 829.4 -0.4 19
2019-05-30 18:00:00 20.1 19 Norte 38 Norte 0 829.5 -0.5 20
2019-05-30 17:00:00 19.6 21 Norte 39 Norte 0 829.8 -0.2 20
2019-05-30 16:00:00 20 19 Norte 39 Norte 0 829.8 -0.2 19
2019-05-30 15:00:00 19.7 15 Norte 36 Norte 0 830 0.1 25
2019-05-30 14:00:00 18.7 17 Norte 32 Norte -- 830 0.2 27
2019-05-30 13:00:00 17.7 13 Norte 26 Nordeste 0 830 0.4 30
2019-05-30 12:00:00 16.7 4 Norte 18 Nordeste 0 829.9 0.7 43
2019-05-30 11:00:00 14.6 8 Nordeste 13 Norte 0 829.8 1 49
2019-05-30 10:00:00 14 6 Nordeste 12 Norte 0 829.6 1 49
2019-05-30 09:00:00 13.4 2 Sudeste 14 Norte 0 829.2 0.9 38
2019-05-30 08:00:00 12 4 Noroeste 19 Nordeste 0 828.8 0.5 40
2019-05-30 07:00:00 9.9 9 Este 19 Nordeste 0 828.6 0.1 40
2019-05-30 06:00:00 9 5 Sudoeste 22 Sudeste 0 828.3 -0.3 43
2019-05-30 05:00:00 11.2 15 Sudeste 28 Sudeste 0 828.3 -0.7 32
2019-05-30 04:00:00 8.9 4 Oeste 19 Este 0 828.5 -0.5 45
2019-05-30 03:00:00 9.7 9 Este 23 Este 0 828.6 -0.5 42
2019-05-30 02:00:00 9.8 8 Este 18 Este 0 829 0 43
2019-05-30 01:00:00 9.3 11 Este 15 Este 0 829 0.5 43
2019-05-30 00:00:00 9.4 8 Este 17 Nordeste 0 829.1 0.7 41
2019-05-29 23:00:00 8.3 6 Este 22 Nordeste 0 829 1.1 61
2019-05-29 22:00:00 8.8 8 Nordeste 29 Norte 0 828.5 0.8 63
2019-05-29 21:00:00 11.3 19 Norte 33 Norte 0 828.4 0.9 57
2019-05-29 20:00:00 13 25 Norte 43 Norte 0 827.9 0.5 52
2019-05-29 19:00:00 13.9 22 Norte 42 Norte 0 827.7 0.3 51
2019-05-29 18:00:00 13.9 26 Norte 47 Norte 0 827.5 0.1 50
2019-05-29 17:00:00 14.2 22 Norte 43 Norte 0 827.4 0.1 49
2019-05-29 16:00:00 13.8 24 Norte -- -- -- 827.4 0.1 51
2019-05-29 15:00:00 12.7 17 Norte 41 Norte 0 827.4 0.4 55
2019-05-29 14:00:00 11.2 18 Norte 35 Norte 0 827.3 0.6 56
2019-05-29 13:00:00 10.9 10 Nordeste 31 Norte 0 827.3 1 60
2019-05-29 12:00:00 8.7 19 Norte 33 Nordeste 0 827 1 64
2019-05-29 11:00:00 8.1 9 Norte 19 Norte 0 826.7 1.2 66
2019-05-29 10:00:00 8.6 6 Norte 27 Este 0 826.3 1.3 60
2019-05-29 09:00:00 7.4 15 Este 30 Nordeste 0 826 1.2 57
2019-05-29 08:00:00 4.9 6 Este 15 Sur 0 825.5 0.7 70
2019-05-29 07:00:00 3.8 9 Este 23 Este 0 825 0.2 69
2019-05-29 06:00:00 2.8 7 Este 23 Este 0 824.8 0 76
2019-05-29 05:00:00 3.8 12 Sudeste 26 Este 0 824.8 -0.2 69
2019-05-29 04:00:00 4.1 9 Este 30 Nordeste 0 824.8 -0.1 66
2019-05-29 03:00:00 4.4 5 Nordeste 27 Nordeste 0 824.8 0.1 65
2019-05-29 02:00:00 4.4 9 Este 28 Nordeste 0 825 0.4 65
2019-05-29 01:00:00 4 8 Nordeste 26 Este 0 824.9 0.6 67
2019-05-29 00:00:00 4.3 10 Este 20 Este 0 824.7 0.9 67
2019-05-28 23:00:00 4.5 9 Nordeste 23 Nordeste 0 824.6 1.1 63
2019-05-28 22:00:00 5.1 11 Nordeste 34 Norte 0 824.3 1 74
2019-05-28 21:00:00 6.7 26 Norte 40 Norte 0 823.8 0.4 67
2019-05-28 20:00:00 8.8 29 Norte 49 Norte 0 823.5 0.6 57
2019-05-28 19:00:00 9.9 30 Norte 51 Norte 0 823.3 0.7 47
2019-05-28 18:00:00 10.2 28 Norte 54 Norte 0 823.4 0.8 47
2019-05-28 17:00:00 10.9 30 Norte 57 Norte 0 822.9 0.5 44
2019-05-28 16:00:00 11.9 25 Norte 47 Norte 0 822.6 0.1 35
2019-05-28 15:00:00 11.9 28 Norte 49 Norte 0 822.6 0.4 30
2019-05-28 14:00:00 11.7 17 Norte 37 Norte 0 822.4 0.5 41
2019-05-28 13:00:00 11 12 Norte 32 Norte 0 822.5 1 42
2019-05-28 12:00:00 8.9 12 Norte 26 Noroeste 0 822.2 1.2 57
2019-05-28 11:00:00 8.3 10 Noroeste 21 Noroeste 0 821.9 1.1 59
2019-05-28 10:00:00 9.8 4 Nordeste 16 Norte 0 821.5 1.1 58
2019-05-28 09:00:00 9.1 6 Noroeste 21 Noroeste 0 821 0.8 36
2019-05-28 08:00:00 8.3 10 Noroeste 19 Noroeste 0 820.8 0.7 35
2019-05-28 07:00:00 6.3 5 Noroeste 15 Oeste 0 820.4 0.1 58
2019-05-28 06:00:00 6.3 3 Oeste 11 Noroeste 0 820.2 -0.1 74
2019-05-28 05:00:00 6.5 3 Sudoeste 10 Sudoeste 0 820.1 -0.6 80
2019-05-28 04:00:00 6.5 4 Noroeste 10 Noroeste 0 820.3 -0.6 72
2019-05-28 03:00:00 7.5 2 Sudoeste 11 Sudoeste 0 820.3 -0.8 79
2019-05-28 02:00:00 8 3 Oeste 9 Sudoeste 0 820.7 -0.3 78
2019-05-28 01:00:00 8.6 5 Sudoeste 10 Sudoeste 0 820.9 0 74
2019-05-28 00:00:00 7.8 5 Sur 10 Sudeste 0 821.1 0.2 76
2019-05-27 23:00:00 8.3 6 Sudeste 21 Norte 0 821 0.5 73
2019-05-27 22:00:00 9.2 4 Nordeste 19 Nordeste 0 820.9 0.5 71
2019-05-27 21:00:00 10.6 12 Norte 36 Norte 0 820.9 0.3 64
2019-05-27 20:00:00 13 22 Norte 48 Norte 0 820.5 -0.1 55
2019-05-27 19:00:00 13.9 19 Norte 50 Nordeste 0 820.4 -0.5 54
2019-05-27 18:00:00 14.6 27 Norte 49 Norte 0 820.6 -0.4 52
2019-05-27 17:00:00 14.5 21 Norte 46 Nordeste 0 820.6 -0.7 52
2019-05-27 16:00:00 13.5 23 Norte 46 Nordeste 0 820.9 -0.7 55
2019-05-27 15:00:00 14.5 18 Norte 52 Norte 0 821 -0.5 50
2019-05-27 14:00:00 13.8 18 Norte 40 Nordeste 0 821.3 -0.3 53
2019-05-27 13:00:00 12.8 16 Noroeste 34 Norte 0 821.6 -0.1 53
2019-05-27 12:00:00 12.5 9 Norte 28 Norte 0 821.5 0.2 60
2019-05-27 11:00:00 11.7 12 Norte 24 Norte 0 821.6 0.4 64
2019-05-27 10:00:00 11.6 8 Norte 19 Norte 0 821.7 0.5 62
2019-05-27 09:00:00 9.7 3 Sudoeste 16 Sudeste 0 821.3 0.2 62
2019-05-27 08:00:00 10.8 6 Este 15 Sur 0 821.2 -0.3 58
2019-05-27 07:00:00 8.1 7 Sur 19 Sudeste 0 821.2 -0.7 62
2019-05-27 06:00:00 8.5 4 Sudeste 13 Nordeste 0 821.1 -1.2 59
2019-05-27 05:00:00 8.4 4 Sudeste 11 Sudeste 0 821.5 -1.4 61
2019-05-27 04:00:00 9.1 8 Norte 19 Norte 0 821.9 -1.4 60
2019-05-27 03:00:00 8.1 8 Sudeste 18 Este 0 822.3 -1.3 67
2019-05-27 02:00:00 8.6 5 Nordeste 20 Nordeste 0 822.9 -0.9 64
2019-05-27 01:00:00 9.3 7 Este 19 Este 0 823.3 -0.3 59
2019-05-27 00:00:00 9.4 8 Este 16 Este 0 823.6 0.1 62
2019-05-26 23:00:00 9 6 Nordeste 15 Nordeste 0 823.8 0.3 69
2019-05-26 22:00:00 8.5 5 Sudeste 16 Nordeste 0 823.6 0.1 77
2019-05-26 21:00:00 10.4 10 Norte 24 Norte 0 823.5 -0.1 69
2019-05-26 20:00:00 12.9 22 Norte 42 Norte 0 823.5 -0.3 60
2019-05-26 19:00:00 14.3 23 Norte 35 Norte 0 823.5 -0.5 55
2019-05-26 18:00:00 15 15 Norte 39 Norte 0 823.6 -0.4 54
2019-05-26 17:00:00 14.9 17 Norte 46 Norte 0 823.8 -0.3 55
2019-05-26 16:00:00 14.2 25 Norte 45 Nordeste 0 824 -0.3 51
2019-05-26 15:00:00 13.2 18 Norte 43 Norte 0 824 0 52
2019-05-26 14:00:00 12 13 Norte 28 Nordeste 0 824.1 0.2 57
2019-05-26 13:00:00 9.8 10 Norte 26 Norte 0 824.3 0.3 65
2019-05-26 12:00:00 9 10 Norte 26 Norte 0 824 0.4 66
2019-05-26 11:00:00 8.8 8 Norte 21 Norte 0 823.9 0.3 61
2019-05-26 10:00:00 8 8 Nordeste 15 Nordeste 0 824 0.6 69
2019-05-26 09:00:00 8.1 7 Nordeste 18 Este 0 823.6 0.4 59
2019-05-26 08:00:00 6.4 4 Este 12 Este 0 823.6 0.4 57
2019-05-26 07:00:00 3.8 6 Este 20 Sudeste 0 823.4 -0.1 65
2019-05-26 06:00:00 4.9 10 Este 17 Este 0 823.2 -0.4 58
2019-05-26 05:00:00 5 7 Sudeste 17 Sudeste 0 823.2 -0.9 51
2019-05-26 04:00:00 3.8 4 Este 16 Sudeste 0 823.5 -0.9 66
2019-05-26 03:00:00 4.6 5 Este 15 Este 0 823.6 -0.9 62
2019-05-26 02:00:00 3.5 7 Sudeste 15 Sur 0 824.1 -0.5 78
2019-05-26 01:00:00 4 3 Oeste 13 Sur 0 824.4 -0.1 83
2019-05-26 00:00:00 4.5 6 Este 14 Nordeste 0 824.5 0.3 87